Time;durP1;ratioP1;P1;durP2;ratioP2;P2;SDS_P1;SDS_P2;PMS_P1;PMS_P2;Temp;Humidity;BMP_temperature;BMP_pressure;BME280_temperature;BME280_humidity;BME280_pressure;Samples;Min_cycle;Max_cycle;Signal;HPM_P1;HPM_P2
2021/01/13 14:41:55;;;;;;;;;;;12.90;72.10;;;;;;5052514;27;19921;-42
2021/01/13 15:17:39;;;;;;;;;;;16.40;59.50;;;;;;5058185;27;80338;-48
2021/01/13 15:20:05;;;;;;;;;;;16.50;61.10;;;;;;5059957;27;80419;-51
2021/01/13 15:23:30;;;;;;;;;;;17.90;57.30;;;;;;5069972;27;1581730;-56
2021/01/13 15:25:55;;;;;;;;;;;18.60;55.70;;;;;;5124269;27;82143;-60
2021/01/13 15:30:07;;;;;;;;;;;16.90;59.40;;;;;;4996910;27;1574106;-60
2021/01/13 15:33:27;;;;;;;;;;;16.40;62.00;;;;;;4993079;27;80438;-57
2021/01/13 15:35:53;;;;;;;;;;;15.90;63.10;;;;;;5016801;28;80407;-49
2021/01/13 15:38:19;;;;;;;;;;;16.00;60.90;;;;;;5020501;28;80835;-57
2021/01/13 15:40:44;;;;;;;;;;;16.20;59.70;;;;;;4975729;27;88705;-61
2021/01/13 15:43:10;;;;;;;;;;;16.20;60.00;;;;;;5000149;28;81886;-57
2021/01/13 15:45:38;;;;;;;;;;;16.30;60.00;;;;;;4997535;28;80985;-58
2021/01/13 15:48:05;;;;;;;;;;;16.60;59.70;;;;;;4998581;28;82061;-63
2021/01/13 15:50:31;;;;;;;;;;;18.60;54.90;;;;;;5000266;28;80363;-57
2021/01/13 15:52:57;;;;;;;;;;;19.10;52.90;;;;;;5002730;28;80736;-63
2021/01/13 15:55:23;;;;;;;;;;;17.00;57.90;;;;;;4999748;28;81342;-52
2021/01/13 15:57:53;;;;;;;;;;;15.40;63.70;;;;;;4997316;28;81704;-50
2021/01/13 16:00:25;;;;;;;;;;;13.90;61.40;;;;;;4997174;28;81076;-53
2021/01/13 16:02:51;;;;;;;;;;;12.70;66.40;;;;;;4997817;28;81965;-52
2021/01/13 16:05:17;;;;;;;;;;;12.30;69.60;;;;;;4998536;28;81873;-52
2021/01/13 16:07:43;;;;;;;;;;;11.80;71.90;;;;;;4998365;28;82031;-52
2021/01/13 16:10:10;;;;;;;;;;;11.50;73.90;;;;;;5001394;28;80407;-55
2021/01/13 16:12:37;;;;;;;;;;;11.10;75.50;;;;;;5001371;28;81347;-52
2021/01/13 16:15:03;;;;;;;;;;;10.80;77.50;;;;;;5002703;28;81432;-53
2021/01/13 16:17:29;;;;;;;;;;;10.40;78.70;;;;;;5001079;28;81131;-50
2021/01/13 16:19:54;;;;;;;;;;;10.20;80.00;;;;;;4999859;28;82153;-52
2021/01/13 16:22:20;;;;;;;;;;;9.90;80.70;;;;;;4997229;28;81552;-49
2021/01/13 16:24:46;;;;;;;;;;;9.70;81.40;;;;;;4997283;28;80525;-51
2021/01/13 16:27:27;;;;;;;;;;;9.60;81.80;;;;;;4998134;28;81533;-54
2021/01/13 16:29:53;;;;;;;;;;;9.40;82.20;;;;;;4998890;28;80295;-51
2021/01/13 16:32:19;;;;;;;;;;;9.30;82.80;;;;;;4999550;28;80396;-50
2021/01/13 16:34:45;;;;;;;;;;;9.20;83.00;;;;;;5000381;28;81939;-52
2021/01/13 16:37:11;;;;;;;;;;;9.00;83.30;;;;;;5002747;28;80376;-50
2021/01/13 16:39:36;;;;;;;;;;;8.90;83.60;;;;;;4999070;28;80663;-50
2021/01/13 16:42:08;;;;;;;;;;;8.80;83.90;;;;;;4998372;28;80419;-49
2021/01/13 16:44:33;;;;;;;;;;;8.70;84.40;;;;;;4984848;28;80404;-50
2021/01/13 16:46:59;;;;;;;;;;;8.60;84.80;;;;;;4983583;28;81032;-50
2021/01/13 16:49:25;;;;;;;;;;;8.40;85.20;;;;;;4984582;28;80434;-52
2021/01/13 16:51:51;;;;;;;;;;;8.40;85.50;;;;;;4985707;28;80352;-52
2021/01/13 16:54:18;;;;;;;;;;;8.20;85.50;;;;;;4985798;28;81256;-51
2021/01/13 16:56:44;;;;;;;;;;;8.10;85.90;;;;;;4985350;28;80341;-55
2021/01/13 16:59:12;;;;;;;;;;;8.00;86.00;;;;;;4987065;28;80487;-51
2021/01/13 17:01:40;;;;;;;;;;;8.00;86.30;;;;;;4985605;28;81449;-52
2021/01/13 17:04:05;;;;;;;;;;;7.90;86.50;;;;;;4987042;28;80590;-54
2021/01/13 17:06:35;;;;;;;;;;;7.80;86.60;;;;;;4986131;28;81920;-50
2021/01/13 17:09:01;;;;;;;;;;;7.70;87.10;;;;;;4978858;28;80518;-53
2021/01/13 17:12:01;;;;;;;;;;;7.60;87.00;;;;;;4952375;27;880055;-52
2021/01/13 17:14:29;;;;;;;;;;;7.50;87.40;;;;;;5019834;28;80387;-52
2021/01/13 17:16:55;;;;;;;;;;;7.50;87.40;;;;;;5017514;28;80515;-49
2021/01/13 17:19:21;;;;;;;;;;;7.40;88.00;;;;;;5025951;28;81603;-49
2021/01/13 17:21:47;;;;;;;;;;;7.40;87.90;;;;;;5038893;28;80337;-52
2021/01/13 17:24:12;;;;;;;;;;;7.30;87.90;;;;;;5040163;28;80394;-50
2021/01/13 17:26:38;;;;;;;;;;;7.20;88.10;;;;;;5041117;28;81439;-53
2021/01/13 17:29:05;;;;;;;;;;;7.20;88.30;;;;;;5036697;28;80427;-50
2021/01/13 17:31:30;;;;;;;;;;;7.10;88.30;;;;;;5023958;28;80904;-49
2021/01/13 17:33:56;;;;;;;;;;;7.10;88.60;;;;;;5018705;28;81651;-48
2021/01/13 17:36:21;;;;;;;;;;;7.00;88.80;;;;;;5021117;28;81007;-53
2021/01/13 17:38:47;;;;;;;;;;;7.00;89.00;;;;;;5021395;28;82059;-50
2021/01/13 17:41:14;;;;;;;;;;;6.90;89.10;;;;;;5038501;28;80589;-51
2021/01/13 17:43:40;;;;;;;;;;;6.90;89.30;;;;;;5039790;28;82042;-49
2021/01/13 17:46:06;;;;;;;;;;;6.80;89.20;;;;;;5039472;28;83118;-53
2021/01/13 17:48:32;;;;;;;;;;;6.80;89.40;;;;;;5039425;28;80461;-53
2021/01/13 17:51:02;;;;;;;;;;;6.80;89.40;;;;;;5019885;28;81263;-49
2021/01/13 17:53:28;;;;;;;;;;;6.70;89.60;;;;;;5023208;28;81207;-55
2021/01/13 17:55:57;;;;;;;;;;;6.60;89.60;;;;;;5020342;28;80880;-53
2021/01/13 17:58:22;;;;;;;;;;;6.60;89.70;;;;;;5018203;28;81553;-55
2021/01/13 18:00:48;;;;;;;;;;;6.60;89.90;;;;;;5035698;28;80417;-51
2021/01/13 18:03:19;;;;;;;;;;;6.50;89.80;;;;;;5038058;28;80618;-50
2021/01/13 18:05:48;;;;;;;;;;;6.50;90.10;;;;;;5038790;28;81329;-51
2021/01/13 18:08:14;;;;;;;;;;;6.40;90.00;;;;;;5039975;28;82116;-52
2021/01/13 18:10:39;;;;;;;;;;;6.40;89.90;;;;;;5036170;28;82325;-51
2021/01/13 18:13:05;;;;;;;;;;;6.40;90.10;;;;;;5037669;28;81525;-53
2021/01/13 18:15:30;;;;;;;;;;;6.30;90.00;;;;;;5041774;28;80531;-49
2021/01/13 18:17:56;;;;;;;;;;;6.30;90.10;;;;;;5039501;28;81372;-49
2021/01/13 18:20:22;;;;;;;;;;;6.30;90.10;;;;;;5025139;28;80391;-54
2021/01/13 18:22:47;;;;;;;;;;;6.20;90.20;;;;;;5010457;28;81395;-53
2021/01/13 18:25:13;;;;;;;;;;;6.20;90.30;;;;;;5006521;28;81321;-51
2021/01/13 18:27:41;;;;;;;;;;;6.20;90.30;;;;;;5003585;28;80489;-53
2021/01/13 18:30:10;;;;;;;;;;;6.10;90.20;;;;;;5000535;28;81390;-54
2021/01/13 18:32:36;;;;;;;;;;;6.10;90.20;;;;;;5024108;28;81401;-50
2021/01/13 18:35:01;;;;;;;;;;;6.10;90.30;;;;;;5024730;28;80509;-50
2021/01/13 18:37:27;;;;;;;;;;;6.10;90.30;;;;;;5027537;28;80507;-51
2021/01/13 18:39:53;;;;;;;;;;;6.00;90.40;;;;;;5014017;28;80390;-50
2021/01/13 18:42:18;;;;;;;;;;;6.00;90.40;;;;;;5004449;28;80514;-51
2021/01/13 18:44:44;;;;;;;;;;;6.00;90.40;;;;;;5004394;28;81020;-52
2021/01/13 18:47:10;;;;;;;;;;;5.90;90.40;;;;;;5003370;28;80391;-51
2021/01/13 18:49:36;;;;;;;;;;;5.90;90.40;;;;;;5010479;28;80488;-53
2021/01/13 18:52:02;;;;;;;;;;;5.80;90.30;;;;;;5024664;28;81120;-48
2021/01/13 18:54:28;;;;;;;;;;;5.80;90.40;;;;;;5024028;28;80409;-50
2021/01/13 18:56:57;;;;;;;;;;;5.80;90.60;;;;;;5024167;28;80687;-51
2021/01/13 18:59:22;;;;;;;;;;;5.70;90.60;;;;;;5024039;28;81797;-56
2021/01/13 19:01:51;;;;;;;;;;;5.70;90.50;;;;;;5006757;28;80469;-52
2021/01/13 19:04:17;;;;;;;;;;;5.70;90.60;;;;;;5002234;28;80691;-53
2021/01/13 19:06:42;;;;;;;;;;;5.70;90.70;;;;;;5003585;28;80465;-50
2021/01/13 19:09:08;;;;;;;;;;;5.60;90.50;;;;;;5006452;28;81036;-54
2021/01/13 19:11:35;;;;;;;;;;;5.70;90.70;;;;;;5023167;28;81151;-51
2021/01/13 19:14:00;;;;;;;;;;;5.60;90.60;;;;;;5022927;28;80456;-51
2021/01/13 19:16:26;;;;;;;;;;;5.60;90.70;;;;;;5023810;28;81210;-53
2021/01/13 19:18:53;;;;;;;;;;;5.50;90.70;;;;;;5022933;28;81279;-52
2021/01/13 19:21:23;;;;;;;;;;;5.50;90.60;;;;;;5009082;28;80463;-54
2021/01/13 19:23:50;;;;;;;;;;;5.50;90.80;;;;;;5006606;28;81984;-50
2021/01/13 19:26:17;;;;;;;;;;;5.40;90.70;;;;;;5004180;28;80418;-49
2021/01/13 19:28:42;;;;;;;;;;;5.40;90.80;;;;;;5003294;28;82438;-51
2021/01/13 19:31:08;;;;;;;;;;;5.40;90.70;;;;;;5020519;28;81035;-51
2021/01/13 19:33:34;;;;;;;;;;;5.40;90.80;;;;;;5021734;28;81985;-51
2021/01/13 19:35:59;;;;;;;;;;;5.40;90.80;;;;;;5025061;28;82002;-49
2021/01/13 19:38:25;;;;;;;;;;;5.30;90.70;;;;;;5022162;28;81665;-51
2021/01/13 19:40:50;;;;;;;;;;;5.30;90.80;;;;;;4991420;28;80440;-52
2021/01/13 19:43:16;;;;;;;;;;;5.30;90.80;;;;;;5003952;28;80469;-52
2021/01/13 19:45:41;;;;;;;;;;;5.30;90.70;;;;;;5005194;28;80473;-51
2021/01/13 19:48:07;;;;;;;;;;;5.20;90.80;;;;;;4987185;28;82925;-51
2021/01/13 19:50:33;;;;;;;;;;;5.20;90.80;;;;;;5018781;28;81020;-55
2021/01/13 19:53:05;;;;;;;;;;;5.20;90.80;;;;;;5026103;28;80408;-53
2021/01/13 19:55:31;;;;;;;;;;;5.20;90.90;;;;;;5025607;28;81170;-49
2021/01/13 19:57:57;;;;;;;;;;;5.10;91.00;;;;;;5025820;28;80417;-50
2021/01/13 20:00:23;;;;;;;;;;;5.10;90.90;;;;;;5014012;28;80429;-54
2021/01/13 20:02:49;;;;;;;;;;;5.10;90.90;;;;;;5005533;28;81852;-52
2021/01/13 20:05:15;;;;;;;;;;;5.10;90.90;;;;;;5001638;28;80404;-52
2021/01/13 20:07:42;;;;;;;;;;;5.00;91.00;;;;;;5003945;28;81983;-55
2021/01/13 20:10:08;;;;;;;;;;;5.00;91.00;;;;;;5013323;28;81696;-52
2021/01/13 20:12:33;;;;;;;;;;;5.00;91.10;;;;;;5026042;28;80442;-55
2021/01/13 20:14:59;;;;;;;;;;;4.90;91.00;;;;;;5023511;28;82037;-51
2021/01/13 20:17:25;;;;;;;;;;;4.90;91.00;;;;;;5019358;28;80926;-49
2021/01/13 20:19:50;;;;;;;;;;;4.90;91.00;;;;;;5010689;28;80481;-54
2021/01/13 20:22:16;;;;;;;;;;;4.90;91.00;;;;;;4985980;28;81506;-51
2021/01/13 20:24:43;;;;;;;;;;;4.90;91.00;;;;;;5007668;28;81446;-57
2021/01/13 20:27:09;;;;;;;;;;;4.80;91.00;;;;;;5003929;28;81303;-49
2021/01/13 20:29:34;;;;;;;;;;;4.80;91.10;;;;;;5004759;28;81012;-52
2021/01/13 20:32:00;;;;;;;;;;;4.80;91.10;;;;;;5004909;28;81996;-48
2021/01/13 20:34:25;;;;;;;;;;;4.80;91.10;;;;;;5001767;28;80890;-52
2021/01/13 20:36:53;;;;;;;;;;;4.80;91.10;;;;;;5001597;28;81394;-54
2021/01/13 20:39:19;;;;;;;;;;;4.80;91.20;;;;;;5003935;28;82064;-51
2021/01/13 20:41:46;;;;;;;;;;;4.70;91.10;;;;;;5000971;28;81145;-51
2021/01/13 20:44:12;;;;;;;;;;;4.70;91.10;;;;;;5003138;28;81511;-51
2021/01/13 20:46:38;;;;;;;;;;;4.70;91.20;;;;;;5005536;28;82087;-51
2021/01/13 20:49:04;;;;;;;;;;;4.70;91.10;;;;;;5007096;28;81374;-50
2021/01/13 20:51:36;;;;;;;;;;;4.60;91.10;;;;;;5022239;28;80832;-52
2021/01/13 20:54:04;;;;;;;;;;;4.60;91.20;;;;;;5025722;28;80982;-54
2021/01/13 20:56:30;;;;;;;;;;;4.60;91.10;;;;;;5022890;28;81503;-51
2021/01/13 20:58:55;;;;;;;;;;;4.60;91.10;;;;;;5021518;28;80404;-50
2021/01/13 21:01:21;;;;;;;;;;;4.60;91.20;;;;;;5004970;28;80866;-54
2021/01/13 21:03:47;;;;;;;;;;;4.60;91.20;;;;;;5003468;28;81368;-52
2021/01/13 21:06:13;;;;;;;;;;;4.60;91.20;;;;;;5002294;28;81781;-54
2021/01/13 21:08:39;;;;;;;;;;;4.50;91.20;;;;;;5004673;28;82075;-51
2021/01/13 21:11:04;;;;;;;;;;;4.50;91.20;;;;;;5019882;28;80935;-51
2021/01/13 21:13:31;;;;;;;;;;;4.50;91.20;;;;;;5022091;28;80408;-50
2021/01/13 21:15:59;;;;;;;;;;;4.50;91.30;;;;;;5020947;28;82413;-51
2021/01/13 21:18:24;;;;;;;;;;;4.50;91.60;;;;;;5019666;28;83382;-51
2021/01/13 21:20:50;;;;;;;;;;;4.40;91.20;;;;;;5019735;28;82137;-50
2021/01/13 21:23:15;;;;;;;;;;;4.40;91.30;;;;;;5020999;28;82975;-51
2021/01/13 21:25:41;;;;;;;;;;;4.40;91.30;;;;;;5021520;28;83039;-50
2021/01/13 21:28:06;;;;;;;;;;;4.40;91.20;;;;;;5025012;28;83592;-50
2021/01/13 21:30:32;;;;;;;;;;;4.40;91.30;;;;;;5009093;28;82084;-54
2021/01/13 21:32:57;;;;;;;;;;;4.40;91.40;;;;;;5001396;28;83758;-49
2021/01/13 21:35:23;;;;;;;;;;;4.40;91.20;;;;;;5003159;28;83121;-53
2021/01/13 21:37:49;;;;;;;;;;;4.30;91.40;;;;;;5004686;28;82095;-51
2021/01/13 21:40:14;;;;;;;;;;;4.30;91.30;;;;;;5000364;28;82360;-49
2021/01/13 21:42:40;;;;;;;;;;;4.30;91.40;;;;;;5001852;28;82342;-51
2021/01/13 21:45:07;;;;;;;;;;;4.30;91.40;;;;;;5002830;28;82246;-52
2021/01/13 21:47:39;;;;;;;;;;;4.20;91.30;;;;;;4999722;28;84460;-53
2021/01/13 21:50:05;;;;;;;;;;;4.30;91.40;;;;;;5001256;28;84090;-51
2021/01/13 21:52:31;;;;;;;;;;;4.20;91.40;;;;;;4999332;28;83624;-52
2021/01/13 21:54:56;;;;;;;;;;;4.20;91.30;;;;;;5000504;28;82976;-54
2021/01/13 21:57:22;;;;;;;;;;;4.20;91.50;;;;;;5012736;28;82110;-52
2021/01/13 21:59:47;;;;;;;;;;;4.20;91.50;;;;;;5026634;28;82940;-53
2021/01/13 22:02:13;;;;;;;;;;;4.20;91.50;;;;;;5024934;28;83686;-49
2021/01/13 22:04:38;;;;;;;;;;;4.20;91.50;;;;;;5022237;28;82090;-51
2021/01/13 22:07:04;;;;;;;;;;;4.20;91.50;;;;;;5015838;28;82060;-50
2021/01/13 22:09:30;;;;;;;;;;;4.10;91.60;;;;;;5003151;28;83651;-53
2021/01/13 22:11:56;;;;;;;;;;;4.10;91.60;;;;;;4988032;28;82156;-53
2021/01/13 22:14:22;;;;;;;;;;;4.10;91.60;;;;;;5003198;28;83164;-53
2021/01/13 22:16:51;;;;;;;;;;;4.10;91.60;;;;;;5008244;28;82144;-50
2021/01/13 22:19:16;;;;;;;;;;;4.00;91.60;;;;;;5025735;28;82661;-50
2021/01/13 22:21:42;;;;;;;;;;;4.10;91.60;;;;;;5022510;28;83437;-49
2021/01/13 22:24:07;;;;;;;;;;;4.10;91.60;;;;;;5022862;28;82111;-51
2021/01/13 22:26:35;;;;;;;;;;;4.10;91.60;;;;;;5021575;28;82355;-50
2021/01/13 22:29:00;;;;;;;;;;;4.00;91.60;;;;;;5002958;28;83186;-51
2021/01/13 22:31:27;;;;;;;;;;;4.00;91.60;;;;;;5004766;28;81346;-52
2021/01/13 22:33:52;;;;;;;;;;;4.00;91.60;;;;;;5006884;28;82173;-51
2021/01/13 22:36:19;;;;;;;;;;;4.00;91.60;;;;;;5005559;28;82105;-54
2021/01/13 22:38:45;;;;;;;;;;;3.90;91.60;;;;;;5004178;28;84920;-52
2021/01/13 22:41:11;;;;;;;;;;;3.90;91.70;;;;;;5005261;28;83497;-57
2021/01/13 22:43:37;;;;;;;;;;;3.90;91.60;;;;;;5006194;28;82124;-50
2021/01/13 22:46:03;;;;;;;;;;;3.90;91.60;;;;;;5004759;28;84569;-54
2021/01/13 22:48:29;;;;;;;;;;;3.90;91.70;;;;;;5021725;28;83956;-50
2021/01/13 22:50:54;;;;;;;;;;;3.90;91.70;;;;;;5022935;28;83684;-50
2021/01/13 22:53:20;;;;;;;;;;;3.90;91.80;;;;;;5026393;28;83499;-54
2021/01/13 22:55:50;;;;;;;;;;;3.90;91.70;;;;;;5028801;28;81355;-52
2021/01/13 22:58:15;;;;;;;;;;;3.90;91.60;;;;;;5009774;28;82133;-49
2021/01/13 23:00:41;;;;;;;;;;;3.90;91.70;;;;;;5005383;28;82619;-51
2021/01/13 23:03:06;;;;;;;;;;;3.80;91.70;;;;;;5003758;28;84650;-53
2021/01/13 23:05:32;;;;;;;;;;;3.80;91.80;;;;;;5001522;28;84181;-52
2021/01/13 23:07:57;;;;;;;;;;;3.80;91.60;;;;;;5001915;28;82257;-51
2021/01/13 23:10:23;;;;;;;;;;;3.80;91.70;;;;;;5003279;28;82088;-53
2021/01/13 23:12:48;;;;;;;;;;;3.80;91.80;;;;;;5004738;28;82147;-51
2021/01/13 23:15:15;;;;;;;;;;;3.80;91.80;;;;;;5005317;28;83012;-53
2021/01/13 23:17:41;;;;;;;;;;;3.80;91.80;;;;;;5017035;28;82154;-51
2021/01/13 23:20:08;;;;;;;;;;;3.70;91.70;;;;;;5025601;28;82224;-55
2021/01/13 23:22:37;;;;;;;;;;;3.80;91.70;;;;;;5024623;28;82114;-55
2021/01/13 23:25:12;;;;;;;;;;;3.70;91.70;;;;;;5022984;28;82850;-53
2021/01/13 23:27:38;;;;;;;;;;;3.70;91.70;;;;;;5020318;28;84634;-55
2021/01/13 23:30:06;;;;;;;;;;;3.70;91.70;;;;;;5024186;28;82178;-53
2021/01/13 23:32:31;;;;;;;;;;;3.70;91.70;;;;;;5022557;28;82087;-51
2021/01/13 23:34:56;;;;;;;;;;;3.70;91.90;;;;;;5022944;28;83181;-53
2021/01/13 23:37:22;;;;;;;;;;;3.70;91.80;;;;;;5011190;28;82090;-54
2021/01/13 23:39:47;;;;;;;;;;;3.70;91.80;;;;;;5005092;28;83208;-53
2021/01/13 23:42:15;;;;;;;;;;;3.70;92.10;;;;;;5002363;28;82801;-51
2021/01/13 23:44:40;;;;;;;;;;;3.60;91.90;;;;;;5005137;28;82842;-51
2021/01/13 23:47:06;;;;;;;;;;;3.60;91.90;;;;;;5004021;28;83675;-52
2021/01/13 23:49:31;;;;;;;;;;;3.60;91.90;;;;;;5021610;28;82084;-53
2021/01/13 23:51:57;;;;;;;;;;;3.60;91.90;;;;;;5020701;28;83039;-52
2021/01/13 23:54:22;;;;;;;;;;;3.60;92.00;;;;;;5021280;28;82652;-50
2021/01/13 23:56:48;;;;;;;;;;;3.60;91.90;;;;;;5021932;28;82076;-51
2021/01/13 23:59:13;;;;;;;;;;;3.60;91.90;;;;;;5004762;28;82607;-53
